This is the latest recevied weather packets stored in our database for station/object EA4BCR. If no packets are shown the sender has not sent any weather packets the latest 10 day(s).
| Time | Temp. | Humidity | Pressure | Rain* | Wind** | Luminosity | Snow |
|---|---|---|---|---|---|---|---|
| 1787513412 | 27.78° C | 58% | 1010.4 hPa | - | - | - | - |
| 1787512810 | 28.89° C | 36% | 1009.7 hPa | - | - | - | - |
| 1787512211 | 29.44° C | 35% | 1009.4 hPa | - | - | - | - |
| 1787511611 | 29.44° C | 35% | 1009.2 hPa | - | - | - | - |
| 1787511010 | 28.89° C | 36% | 1009.3 hPa | - | - | - | - |
| 1787510410 | 29.44° C | 35% | 1009.2 hPa | - | - | - | - |
| 1787509811 | 29.44° C | 35% | 1009.2 hPa | - | - | - | - |
| 1787509210 | 30° C | 35% | 1009.1 hPa | - | - | - | - |
| 1787508610 | 29.44° C | 34% | 1009.2 hPa | - | - | - | - |
| 1787508010 | 31.11° C | 33% | 1008.7 hPa | - | - | - | - |
| 1787507411 | 30° C | 34% | 1009.1 hPa | - | - | - | - |
| 1787506810 | 29.44° C | 35% | 1009.3 hPa | - | - | - | - |
| 1787506210 | 30° C | 34% | 1009.2 hPa | - | - | - | - |
| 1787505611 | 30° C | 33% | 1009.3 hPa | - | - | - | - |
| 1787505010 | 30.56° C | 34% | 1009.1 hPa | - | - | - | - |
| 1787504410 | 31.11° C | 32% | 1009.1 hPa | - | - | - | - |
| 1787503810 | 31.67° C | 32% | 1008.8 hPa | - | - | - | - |
| 1787503210 | 31.11° C | 31% | 1008.9 hPa | - | - | - | - |
| 1787502610 | 31.67° C | 29% | 1009 hPa | - | - | - | - |
| 1787502010 | 30.56° C | 33% | 1009.2 hPa | - | - | - | - |
| 1787501410 | 30.56° C | 33% | 1009.3 hPa | - | - | - | - |
| 1787500810 | 31.11° C | 33% | 1009.2 hPa | - | - | - | - |
| 1787500210 | 31.67° C | 31% | 1009.2 hPa | - | - | - | - |
| 1787499610 | 31.67° C | 31% | 1009.1 hPa | - | - | - | - |
| 1787499010 | 31.67° C | 29% | 1009 hPa | - | - | - | - |
* Rain since midnight (hover to see other rain measurements)
** Current wind speed in m/s (hover to see current wind gust speed)